sensor_id;sensor_type;location;lat;lon;timestamp;P1;durP1;ratioP1;P2;durP2;ratioP2
32824;SDS011;51060;42.640;24.356;2024-03-02T00:00:15;32.50;;;23.27;;
32824;SDS011;51060;42.640;24.356;2024-03-02T00:02:41;40.17;;;26.97;;
32824;SDS011;51060;42.640;24.356;2024-03-02T00:05:09;41.07;;;29.10;;
32824;SDS011;51060;42.640;24.356;2024-03-02T00:07:37;33.97;;;22.80;;
32824;SDS011;51060;42.640;24.356;2024-03-02T00:10:07;34.30;;;24.73;;
32824;SDS011;51060;42.640;24.356;2024-03-02T00:12:36;37.93;;;27.63;;
32824;SDS011;51060;42.640;24.356;2024-03-02T00:15:04;50.20;;;35.77;;
32824;SDS011;51060;42.640;24.356;2024-03-02T00:17:53;50.43;;;36.87;;
32824;SDS011;51060;42.640;24.356;2024-03-02T00:20:23;43.10;;;29.17;;
32824;SDS011;51060;42.640;24.356;2024-03-02T00:23:02;49.40;;;33.10;;
32824;SDS011;51060;42.640;24.356;2024-03-02T00:25:39;50.93;;;35.80;;
32824;SDS011;51060;42.640;24.356;2024-03-02T00:33:17;41.87;;;27.43;;
32824;SDS011;51060;42.640;24.356;2024-03-02T00:35:44;38.07;;;25.90;;
32824;SDS011;51060;42.640;24.356;2024-03-02T00:38:10;54.13;;;38.03;;
32824;SDS011;51060;42.640;24.356;2024-03-02T00:40:39;51.93;;;36.60;;
32824;SDS011;51060;42.640;24.356;2024-03-02T00:43:18;47.63;;;35.43;;
32824;SDS011;51060;42.640;24.356;2024-03-02T00:46:00;45.90;;;33.17;;
32824;SDS011;51060;42.640;24.356;2024-03-02T00:48:28;43.47;;;31.90;;
32824;SDS011;51060;42.640;24.356;2024-03-02T00:50:56;37.33;;;27.23;;
32824;SDS011;51060;42.640;24.356;2024-03-02T00:53:23;38.60;;;26.70;;
32824;SDS011;51060;42.640;24.356;2024-03-02T00:55:52;37.40;;;24.33;;
32824;SDS011;51060;42.640;24.356;2024-03-02T00:58:18;33.80;;;23.07;;
32824;SDS011;51060;42.640;24.356;2024-03-02T01:00:44;38.30;;;26.47;;
32824;SDS011;51060;42.640;24.356;2024-03-02T01:03:09;50.07;;;34.73;;
32824;SDS011;51060;42.640;24.356;2024-03-02T01:05:35;36.93;;;25.27;;
32824;SDS011;51060;42.640;24.356;2024-03-02T01:08:02;29.07;;;20.53;;
32824;SDS011;51060;42.640;24.356;2024-03-02T01:10:28;26.80;;;17.00;;
32824;SDS011;51060;42.640;24.356;2024-03-02T01:12:53;25.77;;;16.00;;
32824;SDS011;51060;42.640;24.356;2024-03-02T01:15:19;24.73;;;16.07;;
32824;SDS011;51060;42.640;24.356;2024-03-02T01:17:47;20.50;;;14.37;;
32824;SDS011;51060;42.640;24.356;2024-03-02T01:20:13;20.30;;;14.50;;
32824;SDS011;51060;42.640;24.356;2024-03-02T01:22:39;21.53;;;13.83;;
32824;SDS011;51060;42.640;24.356;2024-03-02T01:25:04;23.63;;;14.80;;
32824;SDS011;51060;42.640;24.356;2024-03-02T01:27:30;20.80;;;14.20;;
32824;SDS011;51060;42.640;24.356;2024-03-02T01:29:56;20.17;;;13.93;;
32824;SDS011;51060;42.640;24.356;2024-03-02T01:32:25;23.43;;;14.93;;
32824;SDS011;51060;42.640;24.356;2024-03-02T01:34:50;26.23;;;18.07;;
32824;SDS011;51060;42.640;24.356;2024-03-02T01:37:16;22.80;;;17.17;;
32824;SDS011;51060;42.640;24.356;2024-03-02T01:39:42;24.87;;;16.33;;
32824;SDS011;51060;42.640;24.356;2024-03-02T01:42:07;20.00;;;13.90;;
32824;SDS011;51060;42.640;24.356;2024-03-02T01:44:33;20.83;;;13.83;;
32824;SDS011;51060;42.640;24.356;2024-03-02T01:46:58;24.57;;;15.97;;
32824;SDS011;51060;42.640;24.356;2024-03-02T01:49:24;45.20;;;30.80;;
32824;SDS011;51060;42.640;24.356;2024-03-02T01:51:53;33.40;;;22.60;;
32824;SDS011;51060;42.640;24.356;2024-03-02T01:54:18;22.73;;;16.00;;
32824;SDS011;51060;42.640;24.356;2024-03-02T01:56:44;20.90;;;15.23;;
32824;SDS011;51060;42.640;24.356;2024-03-02T01:59:10;31.97;;;21.27;;
32824;SDS011;51060;42.640;24.356;2024-03-02T02:01:38;31.13;;;22.53;;
32824;SDS011;51060;42.640;24.356;2024-03-02T02:04:04;38.37;;;26.33;;
32824;SDS011;51060;42.640;24.356;2024-03-02T02:06:31;36.67;;;25.60;;
32824;SDS011;51060;42.640;24.356;2024-03-02T02:08:57;31.57;;;22.70;;
32824;SDS011;51060;42.640;24.356;2024-03-02T02:11:23;27.47;;;19.73;;
32824;SDS011;51060;42.640;24.356;2024-03-02T02:13:48;27.67;;;19.63;;
32824;SDS011;51060;42.640;24.356;2024-03-02T02:16:14;32.20;;;21.20;;
32824;SDS011;51060;42.640;24.356;2024-03-02T02:18:40;32.50;;;21.40;;
32824;SDS011;51060;42.640;24.356;2024-03-02T02:21:05;31.13;;;22.27;;
32824;SDS011;51060;42.640;24.356;2024-03-02T02:23:31;34.03;;;23.90;;
32824;SDS011;51060;42.640;24.356;2024-03-02T02:25:57;33.73;;;24.37;;
32824;SDS011;51060;42.640;24.356;2024-03-02T02:28:22;35.07;;;26.27;;
32824;SDS011;51060;42.640;24.356;2024-03-02T02:30:48;31.30;;;21.30;;
32824;SDS011;51060;42.640;24.356;2024-03-02T02:33:17;24.37;;;18.33;;
32824;SDS011;51060;42.640;24.356;2024-03-02T02:35:42;29.13;;;19.20;;
32824;SDS011;51060;42.640;24.356;2024-03-02T02:38:08;24.03;;;17.67;;
32824;SDS011;51060;42.640;24.356;2024-03-02T02:40:33;27.57;;;19.97;;
32824;SDS011;51060;42.640;24.356;2024-03-02T02:42:59;27.80;;;19.53;;
32824;SDS011;51060;42.640;24.356;2024-03-02T02:45:25;28.77;;;20.50;;
32824;SDS011;51060;42.640;24.356;2024-03-02T02:47:50;29.10;;;21.00;;
32824;SDS011;51060;42.640;24.356;2024-03-02T02:50:16;30.07;;;21.20;;
32824;SDS011;51060;42.640;24.356;2024-03-02T02:52:42;33.00;;;25.13;;
32824;SDS011;51060;42.640;24.356;2024-03-02T02:55:08;31.50;;;21.40;;
32824;SDS011;51060;42.640;24.356;2024-03-02T02:57:41;26.03;;;18.60;;
32824;SDS011;51060;42.640;24.356;2024-03-02T03:00:08;25.37;;;18.37;;
32824;SDS011;51060;42.640;24.356;2024-03-02T03:02:36;27.77;;;21.60;;
32824;SDS011;51060;42.640;24.356;2024-03-02T03:05:03;35.70;;;26.33;;
32824;SDS011;51060;42.640;24.356;2024-03-02T03:07:29;18.40;;;13.17;;
32824;SDS011;51060;42.640;24.356;2024-03-02T03:09:59;18.13;;;11.23;;
32824;SDS011;51060;42.640;24.356;2024-03-02T03:12:24;17.83;;;11.40;;
32824;SDS011;51060;42.640;24.356;2024-03-02T03:14:50;37.33;;;28.23;;
32824;SDS011;51060;42.640;24.356;2024-03-02T03:17:16;52.87;;;37.83;;
32824;SDS011;51060;42.640;24.356;2024-03-02T03:19:42;54.23;;;41.33;;
32824;SDS011;51060;42.640;24.356;2024-03-02T03:22:08;44.20;;;35.20;;
32824;SDS011;51060;42.640;24.356;2024-03-02T03:24:36;37.70;;;27.37;;
32824;SDS011;51060;42.640;24.356;2024-03-02T03:27:02;19.17;;;13.87;;
32824;SDS011;51060;42.640;24.356;2024-03-02T03:29:28;17.90;;;12.83;;
32824;SDS011;51060;42.640;24.356;2024-03-02T03:31:54;19.10;;;14.43;;
32824;SDS011;51060;42.640;24.356;2024-03-02T03:34:19;18.03;;;13.30;;
32824;SDS011;51060;42.640;24.356;2024-03-02T03:36:45;21.20;;;15.50;;
32824;SDS011;51060;42.640;24.356;2024-03-02T03:39:11;20.40;;;14.90;;
32824;SDS011;51060;42.640;24.356;2024-03-02T03:41:36;18.87;;;14.13;;
32824;SDS011;51060;42.640;24.356;2024-03-02T03:44:02;17.50;;;14.00;;
32824;SDS011;51060;42.640;24.356;2024-03-02T03:46:28;18.13;;;12.37;;
32824;SDS011;51060;42.640;24.356;2024-03-02T03:48:54;12.03;;;8.60;;
32824;SDS011;51060;42.640;24.356;2024-03-02T03:51:22;11.70;;;7.60;;
32824;SDS011;51060;42.640;24.356;2024-03-02T03:53:48;16.93;;;10.67;;
32824;SDS011;51060;42.640;24.356;2024-03-02T03:56:17;17.57;;;11.53;;
32824;SDS011;51060;42.640;24.356;2024-03-02T03:58:43;26.67;;;15.00;;
32824;SDS011;51060;42.640;24.356;2024-03-02T04:01:08;18.83;;;12.97;;
32824;SDS011;51060;42.640;24.356;2024-03-02T04:03:34;23.37;;;13.13;;
32824;SDS011;51060;42.640;24.356;2024-03-02T04:06:00;19.83;;;12.57;;
32824;SDS011;51060;42.640;24.356;2024-03-02T04:08:25;19.57;;;12.57;;
32824;SDS011;51060;42.640;24.356;2024-03-02T04:10:51;19.70;;;13.27;;
32824;SDS011;51060;42.640;24.356;2024-03-02T04:13:17;20.33;;;13.40;;
32824;SDS011;51060;42.640;24.356;2024-03-02T04:15:42;25.13;;;15.67;;
32824;SDS011;51060;42.640;24.356;2024-03-02T04:18:08;25.57;;;16.93;;
32824;SDS011;51060;42.640;24.356;2024-03-02T04:20:37;27.00;;;17.27;;
32824;SDS011;51060;42.640;24.356;2024-03-02T04:23:02;30.07;;;18.13;;
32824;SDS011;51060;42.640;24.356;2024-03-02T04:25:28;27.90;;;18.60;;
32824;SDS011;51060;42.640;24.356;2024-03-02T04:27:54;34.03;;;20.70;;
32824;SDS011;51060;42.640;24.356;2024-03-02T04:30:19;34.23;;;22.07;;
32824;SDS011;51060;42.640;24.356;2024-03-02T04:32:45;32.67;;;22.10;;
32824;SDS011;51060;42.640;24.356;2024-03-02T04:35:12;37.17;;;23.77;;
32824;SDS011;51060;42.640;24.356;2024-03-02T04:37:38;36.27;;;23.77;;
32824;SDS011;51060;42.640;24.356;2024-03-02T04:40:04;34.10;;;21.03;;
32824;SDS011;51060;42.640;24.356;2024-03-02T04:42:33;32.67;;;22.53;;
32824;SDS011;51060;42.640;24.356;2024-03-02T04:44:59;28.03;;;18.23;;
32824;SDS011;51060;42.640;24.356;2024-03-02T04:47:28;27.40;;;18.37;;
32824;SDS011;51060;42.640;24.356;2024-03-02T04:49:53;24.83;;;16.77;;
32824;SDS011;51060;42.640;24.356;2024-03-02T04:52:19;21.10;;;14.77;;
32824;SDS011;51060;42.640;24.356;2024-03-02T04:54:44;182.40;;;100.17;;
32824;SDS011;51060;42.640;24.356;2024-03-02T04:57:28;33.77;;;22.30;;
32824;SDS011;51060;42.640;24.356;2024-03-02T04:59:54;23.73;;;16.97;;
32824;SDS011;51060;42.640;24.356;2024-03-02T05:02:20;20.77;;;14.37;;
32824;SDS011;51060;42.640;24.356;2024-03-02T05:04:45;23.47;;;14.73;;
32824;SDS011;51060;42.640;24.356;2024-03-02T05:07:13;19.90;;;13.17;;
32824;SDS011;51060;42.640;24.356;2024-03-02T05:09:39;21.70;;;12.73;;
32824;SDS011;51060;42.640;24.356;2024-03-02T05:12:05;18.50;;;11.90;;
32824;SDS011;51060;42.640;24.356;2024-03-02T05:14:49;22.83;;;13.70;;
32824;SDS011;51060;42.640;24.356;2024-03-02T05:17:14;28.43;;;19.10;;
32824;SDS011;51060;42.640;24.356;2024-03-02T05:19:40;22.93;;;17.93;;
32824;SDS011;51060;42.640;24.356;2024-03-02T05:22:05;26.63;;;19.00;;
32824;SDS011;51060;42.640;24.356;2024-03-02T05:24:31;37.20;;;25.97;;
32824;SDS011;51060;42.640;24.356;2024-03-02T05:26:57;32.57;;;22.67;;
32824;SDS011;51060;42.640;24.356;2024-03-02T05:29:22;32.53;;;22.13;;
32824;SDS011;51060;42.640;24.356;2024-03-02T05:31:51;29.60;;;21.17;;
32824;SDS011;51060;42.640;24.356;2024-03-02T05:34:17;31.47;;;20.37;;
32824;SDS011;51060;42.640;24.356;2024-03-02T05:36:43;31.83;;;22.20;;
32824;SDS011;51060;42.640;24.356;2024-03-02T05:39:09;36.77;;;28.33;;
32824;SDS011;51060;42.640;24.356;2024-03-02T05:41:35;32.70;;;23.63;;
32824;SDS011;51060;42.640;24.356;2024-03-02T05:44:01;29.70;;;21.10;;
32824;SDS011;51060;42.640;24.356;2024-03-02T05:46:27;30.53;;;22.07;;
32824;SDS011;51060;42.640;24.356;2024-03-02T05:48:53;32.60;;;22.23;;
32824;SDS011;51060;42.640;24.356;2024-03-02T05:51:18;33.23;;;24.30;;
32824;SDS011;51060;42.640;24.356;2024-03-02T05:53:44;36.47;;;26.13;;
32824;SDS011;51060;42.640;24.356;2024-03-02T05:56:10;43.93;;;34.73;;
32824;SDS011;51060;42.640;24.356;2024-03-02T05:58:37;38.03;;;26.97;;
32824;SDS011;51060;42.640;24.356;2024-03-02T06:01:22;27.10;;;19.70;;
32824;SDS011;51060;42.640;24.356;2024-03-02T06:03:56;58.67;;;47.83;;
32824;SDS011;51060;42.640;24.356;2024-03-02T06:06:22;26.90;;;18.80;;
32824;SDS011;51060;42.640;24.356;2024-03-02T06:08:48;47.10;;;41.37;;
32824;SDS011;51060;42.640;24.356;2024-03-02T06:11:14;37.50;;;33.53;;
32824;SDS011;51060;42.640;24.356;2024-03-02T06:13:39;27.33;;;21.53;;
32824;SDS011;51060;42.640;24.356;2024-03-02T06:16:05;21.23;;;16.63;;
32824;SDS011;51060;42.640;24.356;2024-03-02T06:18:34;38.20;;;28.00;;
32824;SDS011;51060;42.640;24.356;2024-03-02T06:20:59;58.10;;;42.43;;
32824;SDS011;51060;42.640;24.356;2024-03-02T06:23:26;47.23;;;33.73;;
32824;SDS011;51060;42.640;24.356;2024-03-02T06:25:52;43.90;;;31.40;;
32824;SDS011;51060;42.640;24.356;2024-03-02T06:28:18;49.60;;;34.07;;
32824;SDS011;51060;42.640;24.356;2024-03-02T06:30:43;37.57;;;27.73;;
32824;SDS011;51060;42.640;24.356;2024-03-02T06:33:10;32.17;;;23.17;;
32824;SDS011;51060;42.640;24.356;2024-03-02T06:35:36;35.40;;;25.60;;
32824;SDS011;51060;42.640;24.356;2024-03-02T06:38:01;30.67;;;22.40;;
32824;SDS011;51060;42.640;24.356;2024-03-02T06:40:30;28.40;;;19.70;;
32824;SDS011;51060;42.640;24.356;2024-03-02T06:42:55;32.07;;;22.23;;
32824;SDS011;51060;42.640;24.356;2024-03-02T06:45:21;26.80;;;19.73;;
32824;SDS011;51060;42.640;24.356;2024-03-02T06:47:50;21.30;;;16.40;;
32824;SDS011;51060;42.640;24.356;2024-03-02T06:50:15;27.00;;;18.17;;
32824;SDS011;51060;42.640;24.356;2024-03-02T06:52:41;32.50;;;20.57;;
32824;SDS011;51060;42.640;24.356;2024-03-02T06:55:07;30.57;;;22.17;;
32824;SDS011;51060;42.640;24.356;2024-03-02T06:57:32;37.10;;;22.00;;
32824;SDS011;51060;42.640;24.356;2024-03-02T06:59:58;37.27;;;24.33;;
32824;SDS011;51060;42.640;24.356;2024-03-02T07:02:30;29.37;;;19.03;;
32824;SDS011;51060;42.640;24.356;2024-03-02T07:04:55;28.07;;;20.00;;
32824;SDS011;51060;42.640;24.356;2024-03-02T07:07:21;30.60;;;21.53;;
32824;SDS011;51060;42.640;24.356;2024-03-02T07:09:47;30.80;;;20.63;;
32824;SDS011;51060;42.640;24.356;2024-03-02T07:12:13;35.50;;;23.67;;
32824;SDS011;51060;42.640;24.356;2024-03-02T07:14:39;29.37;;;20.33;;
32824;SDS011;51060;42.640;24.356;2024-03-02T07:17:23;18.93;;;13.87;;
32824;SDS011;51060;42.640;24.356;2024-03-02T07:19:49;20.87;;;14.77;;
32824;SDS011;51060;42.640;24.356;2024-03-02T07:22:14;34.07;;;25.73;;
32824;SDS011;51060;42.640;24.356;2024-03-02T07:24:42;31.67;;;22.93;;
32824;SDS011;51060;42.640;24.356;2024-03-02T07:27:08;26.47;;;17.30;;
32824;SDS011;51060;42.640;24.356;2024-03-02T07:29:37;24.00;;;15.93;;
32824;SDS011;51060;42.640;24.356;2024-03-02T07:32:03;30.50;;;21.00;;
32824;SDS011;51060;42.640;24.356;2024-03-02T07:34:29;45.30;;;31.67;;
32824;SDS011;51060;42.640;24.356;2024-03-02T07:36:55;32.87;;;24.97;;
32824;SDS011;51060;42.640;24.356;2024-03-02T07:39:20;36.53;;;26.63;;
32824;SDS011;51060;42.640;24.356;2024-03-02T07:41:49;27.70;;;19.83;;
32824;SDS011;51060;42.640;24.356;2024-03-02T07:44:15;28.07;;;19.03;;
32824;SDS011;51060;42.640;24.356;2024-03-02T07:46:41;21.40;;;13.20;;
32824;SDS011;51060;42.640;24.356;2024-03-02T07:49:07;23.17;;;15.20;;
32824;SDS011;51060;42.640;24.356;2024-03-02T07:51:34;11.00;;;7.97;;
32824;SDS011;51060;42.640;24.356;2024-03-02T07:53:59;13.80;;;9.10;;
32824;SDS011;51060;42.640;24.356;2024-03-02T07:56:25;8.07;;;6.43;;
32824;SDS011;51060;42.640;24.356;2024-03-02T07:58:51;11.80;;;8.10;;
32824;SDS011;51060;42.640;24.356;2024-03-02T08:01:16;12.27;;;8.73;;
32824;SDS011;51060;42.640;24.356;2024-03-02T08:03:42;10.67;;;7.10;;
32824;SDS011;51060;42.640;24.356;2024-03-02T08:06:16;12.10;;;7.80;;
32824;SDS011;51060;42.640;24.356;2024-03-02T08:08:42;10.10;;;7.60;;
32824;SDS011;51060;42.640;24.356;2024-03-02T08:11:08;13.40;;;9.20;;
32824;SDS011;51060;42.640;24.356;2024-03-02T08:13:34;14.43;;;9.17;;
32824;SDS011;51060;42.640;24.356;2024-03-02T08:16:00;12.27;;;9.07;;
32824;SDS011;51060;42.640;24.356;2024-03-02T08:18:28;13.83;;;9.50;;
32824;SDS011;51060;42.640;24.356;2024-03-02T08:20:56;13.27;;;9.80;;
32824;SDS011;51060;42.640;24.356;2024-03-02T08:23:22;14.60;;;10.47;;
32824;SDS011;51060;42.640;24.356;2024-03-02T08:25:47;13.30;;;10.30;;
32824;SDS011;51060;42.640;24.356;2024-03-02T08:28:13;20.83;;;16.03;;
32824;SDS011;51060;42.640;24.356;2024-03-02T08:30:39;17.50;;;14.90;;
32824;SDS011;51060;42.640;24.356;2024-03-02T08:33:04;15.13;;;13.33;;
32824;SDS011;51060;42.640;24.356;2024-03-02T08:35:31;10.83;;;8.17;;
32824;SDS011;51060;42.640;24.356;2024-03-02T08:38:01;11.37;;;8.17;;
32824;SDS011;51060;42.640;24.356;2024-03-02T08:40:29;12.60;;;9.60;;
32824;SDS011;51060;42.640;24.356;2024-03-02T08:42:55;11.33;;;8.67;;
32824;SDS011;51060;42.640;24.356;2024-03-02T08:45:21;12.77;;;9.83;;
32824;SDS011;51060;42.640;24.356;2024-03-02T08:47:49;13.30;;;9.93;;
32824;SDS011;51060;42.640;24.356;2024-03-02T08:50:15;15.50;;;11.10;;
32824;SDS011;51060;42.640;24.356;2024-03-02T08:52:40;12.73;;;9.50;;
32824;SDS011;51060;42.640;24.356;2024-03-02T08:55:06;9.40;;;7.10;;
32824;SDS011;51060;42.640;24.356;2024-03-02T08:57:32;12.10;;;8.27;;
32824;SDS011;51060;42.640;24.356;2024-03-02T08:59:58;16.53;;;11.83;;
32824;SDS011;51060;42.640;24.356;2024-03-02T09:02:25;22.10;;;15.23;;
32824;SDS011;51060;42.640;24.356;2024-03-02T09:04:50;18.70;;;13.30;;
32824;SDS011;51060;42.640;24.356;2024-03-02T09:07:16;22.60;;;15.53;;
32824;SDS011;51060;42.640;24.356;2024-03-02T09:09:42;13.70;;;9.40;;
32824;SDS011;51060;42.640;24.356;2024-03-02T09:12:08;13.10;;;9.27;;
32824;SDS011;51060;42.640;24.356;2024-03-02T09:14:34;25.03;;;14.87;;
32824;SDS011;51060;42.640;24.356;2024-03-02T09:17:00;27.83;;;18.37;;
32824;SDS011;51060;42.640;24.356;2024-03-02T09:19:25;20.87;;;13.73;;
32824;SDS011;51060;42.640;24.356;2024-03-02T09:21:51;6.73;;;5.80;;
32824;SDS011;51060;42.640;24.356;2024-03-02T09:24:17;8.63;;;5.70;;
32824;SDS011;51060;42.640;24.356;2024-03-02T09:26:42;10.80;;;8.67;;
32824;SDS011;51060;42.640;24.356;2024-03-02T09:29:08;11.93;;;8.37;;
32824;SDS011;51060;42.640;24.356;2024-03-02T09:31:38;7.10;;;5.80;;
32824;SDS011;51060;42.640;24.356;2024-03-02T09:34:07;8.07;;;6.27;;
32824;SDS011;51060;42.640;24.356;2024-03-02T09:36:33;15.73;;;11.83;;
32824;SDS011;51060;42.640;24.356;2024-03-02T09:38:59;11.63;;;7.97;;
32824;SDS011;51060;42.640;24.356;2024-03-02T09:41:24;20.63;;;13.47;;
32824;SDS011;51060;42.640;24.356;2024-03-02T09:43:50;31.07;;;19.70;;
32824;SDS011;51060;42.640;24.356;2024-03-02T09:46:16;16.03;;;10.80;;
32824;SDS011;51060;42.640;24.356;2024-03-02T09:48:43;26.10;;;16.93;;
32824;SDS011;51060;42.640;24.356;2024-03-02T09:51:09;27.27;;;17.57;;
32824;SDS011;51060;42.640;24.356;2024-03-02T09:53:35;24.33;;;14.40;;
32824;SDS011;51060;42.640;24.356;2024-03-02T09:56:01;42.33;;;25.63;;
32824;SDS011;51060;42.640;24.356;2024-03-02T09:58:27;29.43;;;20.40;;
32824;SDS011;51060;42.640;24.356;2024-03-02T10:00:53;15.30;;;11.73;;
32824;SDS011;51060;42.640;24.356;2024-03-02T10:03:18;21.97;;;16.50;;
32824;SDS011;51060;42.640;24.356;2024-03-02T10:05:44;24.97;;;18.17;;
32824;SDS011;51060;42.640;24.356;2024-03-02T10:08:10;25.43;;;18.10;;
32824;SDS011;51060;42.640;24.356;2024-03-02T10:10:37;17.30;;;13.33;;
32824;SDS011;51060;42.640;24.356;2024-03-02T10:13:08;19.17;;;13.87;;
32824;SDS011;51060;42.640;24.356;2024-03-02T10:15:38;16.20;;;12.50;;
32824;SDS011;51060;42.640;24.356;2024-03-02T10:18:09;18.27;;;14.57;;
32824;SDS011;51060;42.640;24.356;2024-03-02T10:20:37;19.20;;;15.23;;
32824;SDS011;51060;42.640;24.356;2024-03-02T10:23:09;17.90;;;14.67;;
32824;SDS011;51060;42.640;24.356;2024-03-02T10:25:36;18.70;;;13.47;;
32824;SDS011;51060;42.640;24.356;2024-03-02T10:28:02;20.47;;;13.87;;
32824;SDS011;51060;42.640;24.356;2024-03-02T10:30:30;18.93;;;13.43;;
32824;SDS011;51060;42.640;24.356;2024-03-02T10:32:55;16.20;;;11.77;;
32824;SDS011;51060;42.640;24.356;2024-03-02T10:35:24;27.43;;;19.63;;
32824;SDS011;51060;42.640;24.356;2024-03-02T10:37:51;16.73;;;12.33;;
32824;SDS011;51060;42.640;24.356;2024-03-02T10:40:17;20.93;;;14.23;;
32824;SDS011;51060;42.640;24.356;2024-03-02T10:42:44;15.40;;;10.50;;
32824;SDS011;51060;42.640;24.356;2024-03-02T10:45:10;13.87;;;10.83;;
32824;SDS011;51060;42.640;24.356;2024-03-02T10:47:37;15.60;;;11.03;;
32824;SDS011;51060;42.640;24.356;2024-03-02T10:50:06;12.00;;;9.53;;
32824;SDS011;51060;42.640;24.356;2024-03-02T10:52:42;13.23;;;10.53;;
32824;SDS011;51060;42.640;24.356;2024-03-02T10:55:10;10.80;;;7.83;;
32824;SDS011;51060;42.640;24.356;2024-03-02T10:57:53;10.70;;;7.97;;
32824;SDS011;51060;42.640;24.356;2024-03-02T11:00:21;10.37;;;7.27;;
32824;SDS011;51060;42.640;24.356;2024-03-02T11:03:00;10.47;;;8.47;;
32824;SDS011;51060;42.640;24.356;2024-03-02T11:05:38;10.07;;;6.90;;
32824;SDS011;51060;42.640;24.356;2024-03-02T11:08:08;11.77;;;8.23;;
32824;SDS011;51060;42.640;24.356;2024-03-02T11:10:37;9.87;;;7.53;;
32824;SDS011;51060;42.640;24.356;2024-03-02T11:13:11;10.57;;;7.60;;
32824;SDS011;51060;42.640;24.356;2024-03-02T11:15:37;12.53;;;8.50;;
32824;SDS011;51060;42.640;24.356;2024-03-02T11:18:05;9.63;;;7.20;;
32824;SDS011;51060;42.640;24.356;2024-03-02T11:20:37;7.30;;;5.90;;
32824;SDS011;51060;42.640;24.356;2024-03-02T11:23:05;8.20;;;5.23;;
32824;SDS011;51060;42.640;24.356;2024-03-02T11:25:32;7.57;;;6.27;;
32824;SDS011;51060;42.640;24.356;2024-03-02T11:28:04;9.93;;;7.17;;
32824;SDS011;51060;42.640;24.356;2024-03-02T11:33:00;12.27;;;10.17;;
32824;SDS011;51060;42.640;24.356;2024-03-02T11:35:26;9.37;;;7.10;;
32824;SDS011;51060;42.640;24.356;2024-03-02T11:37:54;8.60;;;6.83;;
32824;SDS011;51060;42.640;24.356;2024-03-02T11:40:23;9.40;;;7.40;;
32824;SDS011;51060;42.640;24.356;2024-03-02T11:42:49;12.07;;;8.40;;
32824;SDS011;51060;42.640;24.356;2024-03-02T11:45:17;10.17;;;7.27;;
32824;SDS011;51060;42.640;24.356;2024-03-02T11:47:51;7.60;;;5.60;;
32824;SDS011;51060;42.640;24.356;2024-03-02T11:50:34;8.07;;;6.70;;
32824;SDS011;51060;42.640;24.356;2024-03-02T11:53:03;7.13;;;5.50;;
32824;SDS011;51060;42.640;24.356;2024-03-02T11:55:37;7.93;;;6.20;;
32824;SDS011;51060;42.640;24.356;2024-03-02T11:58:03;12.03;;;6.97;;
32824;SDS011;51060;42.640;24.356;2024-03-02T12:00:29;8.03;;;5.80;;
32824;SDS011;51060;42.640;24.356;2024-03-02T12:03:05;11.07;;;7.30;;
32824;SDS011;51060;42.640;24.356;2024-03-02T12:05:31;10.27;;;6.63;;
32824;SDS011;51060;42.640;24.356;2024-03-02T12:08:01;11.17;;;8.27;;
32824;SDS011;51060;42.640;24.356;2024-03-02T12:10:29;9.17;;;6.70;;
32824;SDS011;51060;42.640;24.356;2024-03-02T12:12:55;10.37;;;6.83;;
32824;SDS011;51060;42.640;24.356;2024-03-02T12:15:28;7.80;;;6.07;;
32824;SDS011;51060;42.640;24.356;2024-03-02T12:17:58;8.20;;;5.57;;
32824;SDS011;51060;42.640;24.356;2024-03-02T12:20:25;9.47;;;7.17;;
32824;SDS011;51060;42.640;24.356;2024-03-02T12:22:52;12.43;;;8.87;;
32824;SDS011;51060;42.640;24.356;2024-03-02T12:25:19;8.63;;;7.73;;
32824;SDS011;51060;42.640;24.356;2024-03-02T12:27:45;11.63;;;7.63;;
32824;SDS011;51060;42.640;24.356;2024-03-02T12:30:12;9.13;;;6.80;;
32824;SDS011;51060;42.640;24.356;2024-03-02T12:32:39;10.93;;;8.30;;
32824;SDS011;51060;42.640;24.356;2024-03-02T12:35:06;17.80;;;15.63;;
32824;SDS011;51060;42.640;24.356;2024-03-02T12:37:32;19.47;;;15.00;;
32824;SDS011;51060;42.640;24.356;2024-03-02T12:39:58;41.13;;;29.80;;
32824;SDS011;51060;42.640;24.356;2024-03-02T12:42:24;57.37;;;42.90;;
32824;SDS011;51060;42.640;24.356;2024-03-02T12:44:53;29.13;;;22.87;;
32824;SDS011;51060;42.640;24.356;2024-03-02T12:47:20;14.87;;;11.50;;
32824;SDS011;51060;42.640;24.356;2024-03-02T12:49:46;12.00;;;8.03;;
32824;SDS011;51060;42.640;24.356;2024-03-02T12:52:12;10.37;;;8.27;;
32824;SDS011;51060;42.640;24.356;2024-03-02T12:54:38;17.60;;;14.43;;
32824;SDS011;51060;42.640;24.356;2024-03-02T12:57:04;18.10;;;13.10;;
32824;SDS011;51060;42.640;24.356;2024-03-02T12:59:30;17.03;;;12.77;;
32824;SDS011;51060;42.640;24.356;2024-03-02T13:01:56;15.83;;;12.10;;
32824;SDS011;51060;42.640;24.356;2024-03-02T13:04:27;17.60;;;13.73;;
32824;SDS011;51060;42.640;24.356;2024-03-02T13:06:54;16.70;;;10.43;;
32824;SDS011;51060;42.640;24.356;2024-03-02T13:09:21;9.07;;;7.57;;
32824;SDS011;51060;42.640;24.356;2024-03-02T13:11:47;15.57;;;12.03;;
32824;SDS011;51060;42.640;24.356;2024-03-02T13:14:14;22.17;;;17.67;;
32824;SDS011;51060;42.640;24.356;2024-03-02T13:16:40;24.50;;;18.87;;
32824;SDS011;51060;42.640;24.356;2024-03-02T13:19:09;16.33;;;12.47;;
32824;SDS011;51060;42.640;24.356;2024-03-02T13:21:36;13.03;;;10.33;;
32824;SDS011;51060;42.640;24.356;2024-03-02T13:24:02;18.57;;;16.50;;
32824;SDS011;51060;42.640;24.356;2024-03-02T13:26:28;16.77;;;11.07;;
32824;SDS011;51060;42.640;24.356;2024-03-02T13:28:57;14.10;;;10.07;;
32824;SDS011;51060;42.640;24.356;2024-03-02T13:31:25;10.40;;;7.60;;
32824;SDS011;51060;42.640;24.356;2024-03-02T13:33:51;15.23;;;9.73;;
32824;SDS011;51060;42.640;24.356;2024-03-02T13:36:17;13.10;;;11.07;;
32824;SDS011;51060;42.640;24.356;2024-03-02T13:38:44;10.67;;;9.30;;
32824;SDS011;51060;42.640;24.356;2024-03-02T13:41:10;18.63;;;13.60;;
32824;SDS011;51060;42.640;24.356;2024-03-02T13:43:37;13.17;;;9.03;;
32824;SDS011;51060;42.640;24.356;2024-03-02T13:46:04;10.37;;;8.23;;
32824;SDS011;51060;42.640;24.356;2024-03-02T13:48:29;10.93;;;7.73;;
32824;SDS011;51060;42.640;24.356;2024-03-02T13:50:57;12.97;;;10.17;;
32824;SDS011;51060;42.640;24.356;2024-03-02T13:53:22;16.77;;;12.00;;
32824;SDS011;51060;42.640;24.356;2024-03-02T13:55:48;14.67;;;10.23;;
32824;SDS011;51060;42.640;24.356;2024-03-02T13:58:14;13.33;;;10.27;;
32824;SDS011;51060;42.640;24.356;2024-03-02T14:00:40;12.93;;;10.40;;
32824;SDS011;51060;42.640;24.356;2024-03-02T14:03:06;12.87;;;10.17;;
32824;SDS011;51060;42.640;24.356;2024-03-02T14:05:32;14.17;;;11.03;;
32824;SDS011;51060;42.640;24.356;2024-03-02T14:07:58;14.10;;;10.70;;
32824;SDS011;51060;42.640;24.356;2024-03-02T14:10:25;10.20;;;7.70;;
32824;SDS011;51060;42.640;24.356;2024-03-02T14:12:52;11.73;;;8.83;;
32824;SDS011;51060;42.640;24.356;2024-03-02T14:15:20;13.70;;;9.70;;
32824;SDS011;51060;42.640;24.356;2024-03-02T14:17:46;16.53;;;11.03;;
32824;SDS011;51060;42.640;24.356;2024-03-02T14:20:12;14.43;;;10.37;;